Weather observations for the past three days for
Stephens County Airport
Metric (Imperial)
Date Time (cdt) Wind (kph) Vis. (km) Weather Sky Cond. Temperature (ºC) Relative Humidity Wind Chill (°C) Heat Index (°C) Pressure Precipitation (cm)
Air Dwpt 6 hour altimeter (cm) sea level (mb) 1 hr 3 hr 6 hr
Max. Min.
04 09:15 S 26 G 35 11.27 Fair CLR 19.8 13.2 66% 75.9 0.0
04 08:55 SW 19 G 35 8.05 Fair CLR 19.1 13 68% 75.87 0.0
04 08:35 S 28 G 33 8.05 Fair CLR 18.3 12.5 69% 75.87 0.0
04 08:15 S 22 G 30 8.05 Fair CLR 17.5 12.2 71% 75.87 0.0
04 07:55 S 22 G 33 6.44 Fair CLR 17 11.8 72% 75.87 0.0
04 07:35 S 15 8.05 Fair CLR 16.6 11.5 72% 75.84 0.0
04 07:15 S 15 6.44 Fair CLR 16.5 11 70% 75.84 0.0
04 06:55 S 15 6.44 Fair CLR 16.3 10.7 17 14.7 70% 75.84 0.0
04 06:35 S 15 8.05 Fair CLR 16.5 10.5 68% 75.84 0.0
04 06:15 S 15 8.05 Fair CLR 16.4 10 66% 75.84 0.0
04 05:55 S 17 11.27 Fair CLR 16.5 9.6 64% 75.84 0.0
04 05:35 S 15 11.27 Fair CLR 16.6 9.5 63% 75.87 0.0
04 05:15 S 17 11.27 Fair CLR 17 9.2 60% 75.87 0.0
04 04:55 S 17 11.27 Fair CLR 16.8 9 60% 75.9 0.0
04 04:35 S 17 11.27 Fair CLR 16.5 9.2 62% 75.9 0.0
04 04:15 S 13 8.05 Fair CLR 15.2 9.4 69% 75.92 0.0
04 03:55 S 11 11.27 Fair CLR 14.8 9.5 71% 75.92 0.0
04 03:35 S 9 11.27 Fair CLR 15.7 9.2 65% 75.95 0.0
04 03:15 S 11 11.27 Fair CLR 15.9 9.2 65% 75.97 0.0
04 02:55 S 13 11.27 Fair CLR 15.8 9.2 65% 75.97 0.0
04 02:35 S 11 11.27 Fair CLR 16.3 9 62% 76 0.0
04 02:15 S 13 11.27 Fair CLR 16.7 9 61% 76.02 0.0
04 01:55 S 15 11.27 Fair CLR 16.8 8.9 60% 76.05 0.0
04 01:35 S 11 11.27 Fair CLR 17 8.7 58% 76.05 0.0
04 01:15 S 11 11.27 Fair CLR 16.7 8.7 59% 76.07 0.0
04 00:55 S 11 11.27 Fair CLR 16.9 8.7 25.2 16.9 59% 76.1 0.0
04 00:35 S 13 11.27 Fair CLR 17.2 8.6 57% 76.1 0.0
04 00:15 S 13 11.27 Fair CLR 17.6 8.6 56% 76.1 0.0
03 23:55 SE 13 11.27 Fair CLR 17.5 8.5 56% 76.12 0.0
03 23:35 S 11 11.27 Fair CLR 17.6 8.3 55% 76.15 0.0
03 23:15 S 9 11.27 Fair CLR 17.6 8.5 55% 76.15 0.0
03 22:55 S 9 8.05 Fair CLR 18 8.3 53% 76.17 0.0
03 22:35 SE 9 11.27 Fair CLR 18.1 8.1 52% 76.17 0.0
03 22:15 SE 9 11.27 Fair CLR 18.5 8.3 52% 76.15 0.0
03 21:55 SE 11 11.27 Fair CLR 18.8 8 50% 76.15 0.0
03 21:35 SE 9 11.27 Fair CLR 19.6 7.7 46% 76.15 0.0
03 21:15 S 9 11.27 Fair CLR 20.1 7.8 45% 76.12 0.0
03 20:55 S 9 11.27 Fair CLR 21.1 7.3 41% 76.12 0.0
03 20:35 S 13 11.27 Fair CLR 22.2 7 38% 76.12 0.0
03 20:15 S 11 6.44 Fair CLR 22.8 7.1 36% 76.12 0.0
03 19:55 S 15 8.05 Fair CLR 23.5 7.1 35% 76.12 0.0
03 19:35 S 15 G 28 8.05 Fair CLR 24.3 6.8 33% 25 76.12 0.0
03 19:15 S 15 8.05 Fair CLR 24.6 6.1 31% 25 76.15 0.0
03 18:55 S 17 11.27 Fair CLR 24.8 5.5 27.5 24.8 29% 25 76.15 0.0
03 18:35 S 17 16.09 Fair CLR 25.3 5.5 28% 25 76.15 0.0
03 18:15 S 20 G 28 16.09 Fair CLR 25.7 5.3 27% 26 76.17 0.0
03 17:55 S 24 G 33 16.09 Fair CLR 25.6 5 27% 26 76.2 0.0
03 17:35 SW 19 G 28 16.09 Fair CLR 27 6.6 27% 26 76.2 0.0
03 17:15 SW 19 G 33 16.09 Fair CLR 27 5.3 25% 26 76.23 0.0
03 16:55 S 22 G 28 16.09 Fair CLR 26.9 6.7 28% 26 76.23 0.0
03 16:35 S 19 G 31 16.09 Fair CLR 27.4 6.4 26% 27 76.25 0.0
03 16:15 S 24 G 30 16.09 Fair CLR 26.8 6.5 27% 26 76.28 0.0
03 15:55 S 20 G 33 16.09 Fair CLR 27 6.2 27% 26 76.33 0.0
03 15:35 S 17 G 33 16.09 Fair CLR 27.3 6 26% 26 76.35 0.0
03 15:15 S 19 G 33 16.09 Fair CLR 26.9 4.7 24% 26 76.38 0.0
03 14:55 S 19 G 31 16.09 Fair CLR 26.9 5.4 25% 26 76.4 0.0
03 14:35 S 22 G 31 16.09 Fair CLR 27.1 6.2 26% 26 76.43 0.0
03 14:15 SW 26 G 31 16.09 Fair CLR 26.9 6.3 27% 26 76.45 0.0
03 13:55 S 19 G 28 16.09 Fair CLR 26.8 6.2 27% 26 76.48 0.0
03 13:35 S 26 16.09 Fair CLR 26.2 7.1 30% 26 76.48 0.0
03 13:15 SW 15 G 30 16.09 Partly Cloudy SCT075 26.5 7.3 30% 26 76.53 0.0
03 12:55 SW 24 G 30 16.09 Fair CLR 26.1 7.1 26.1 11 30% 26 76.56 0.0
03 12:35 SW 19 11.27 Fair CLR 25.5 8 33% 26 76.58 0.0
03 12:15 SW 19 G 30 8.05 Fair CLR 25.4 8.9 35% 26 76.61 0.0
03 11:55 W 20 6.44 Fair CLR 25 8.6 35% 26 76.63 0.0
03 11:35 SW 19 G 26 8.05 Fair CLR 24.6 9.1 37% 25 76.63 0.0
03 11:15 SW 24 G 31 16.09 Fair CLR 24.1 8.6 37% 25 76.66 0.0
03 10:55 SW 24 G 30 16.09 Fair CLR 23.6 8.9 39% 76.66 0.0
03 10:35 Calm 16.09 Fair CLR 23 8.9 41% 76.66 0.0
03 10:15 Calm 8.05 Fair CLR 22.2 8.8 42% 76.66 0.0
03 09:55 Calm 11.27 Fair CLR 21.6 8.8 44% 76.66 0.0
03 09:35 Calm 6.44 Fair CLR 20.6 9 48% 76.66 0.0
03 09:15 Calm 8.05 Fair CLR 19.1 9.7 55% 76.66 0.0
03 08:55 Calm 8.05 Fair CLR 18 9.2 57% 76.63 0.0
03 08:35 Calm 6.44 Fair CLR 16.6 8.5 59% 76.63 0.0
03 08:15 Calm 11.27 Fair CLR 15.7 8.5 62% 76.63 0.0
03 07:55 Calm 8.05 Fair CLR 13.7 8.7 72% 76.63 0.0
03 07:35 Calm 8.05 Fair CLR 12.5 7.8 73% 76.61 0.0
03 07:15 Calm 8.05 Fair CLR 11.7 7.5 76% 76.58 0.0
03 06:55 Calm 8.05 Fair CLR 11 7.4 16.6 10.6 79% 76.56 0.0
03 06:35 Calm 11.27 Fair CLR 11.4 7.3 76% 76.56 0.0
03 06:15 Calm 11.27 Fair CLR 12 7.6 75% 76.53 0.0
03 05:55 Calm 8.05 Fair CLR 11.6 7.8 78% 76.53 0.0
03 05:35 Calm 11.27 Fair CLR 11.5 7.8 78% 76.53 0.0
03 05:15 Calm 8.05 Fair CLR 10.7 7.9 83% 76.53 0.0
03 04:55 Calm 11.27 Fair CLR 11.5 8 79% 76.53 0.0
03 04:35 Calm 11.27 Fair CLR 11.1 8 81% 76.53 0.0
03 04:15 Calm 11.27 Fair CLR 11.6 8 79% 76.53 0.0
03 03:55 Calm 8.05 Fair CLR 12.1 8 76% 76.53 0.0
03 03:35 Calm 11.27 Fair CLR 12.5 8 74% 76.53 0.0
03 03:15 Calm 11.27 Fair CLR 12.6 7.9 73% 76.53 0.0
03 02:55 Calm 11.27 Fair CLR 13.3 8 71% 76.53 0.0
03 02:35 Calm 11.27 Fair CLR 13.5 8 70% 76.53 0.0
03 02:15 Calm 11.27 Fair CLR 15 7.8 62% 76.56 0.0
03 01:55 Calm 8.05 Fair CLR 15.3 7.7 61% 76.56 0.0
03 01:35 Calm 11.27 Fair CLR 15.3 7.6 60% 76.56 0.0
03 01:15 Calm 11.27 Fair CLR 15.8 7.5 58% 76.56 0.0
03 00:55 Calm 11.27 Fair CLR 16.7 7.3 24 15.4 54% 76.56 0.0
03 00:35 Calm 11.27 Fair CLR 16.1 7.5 57% 76.58 0.0
03 00:15 Calm 11.27 Fair CLR 16.5 7.5 56% 76.56 0.0
02 23:55 Calm 11.27 Fair CLR 15.8 7.8 59% 76.56 0.0
02 23:35 Calm 11.27 Fair CLR 16.1 7.8 58% 76.56 0.0
02 23:15 Calm 11.27 Fair CLR 15.7 8.4 62% 76.56 0.0
02 22:55 Calm 8.05 Fair CLR 16.5 8.2 58% 76.56 0.0
02 22:35 Calm 11.27 Fair CLR 16.5 8.6 60% 76.53 0.0
02 22:15 Calm 8.05 Fair CLR 17.5 8.1 54% 76.53 0.0
02 21:55 Calm 11.27 Fair CLR 17.7 8.7 56% 76.53 0.0
02 21:35 Calm 11.27 Fair CLR 18 9 56% 76.5 0.0
02 21:15 Calm 11.27 Fair CLR 18.8 8.5 51% 76.5 0.0
02 20:55 Calm 11.27 Fair CLR 20.4 7.4 43% 76.48 0.0
02 20:35 Calm 11.27 Fair CLR 20.6 7.2 42% 76.48 0.0
02 20:15 Calm 16.09 Fair CLR 21.2 7.1 40% 76.45 0.0
02 19:55 Calm 8.05 Fair CLR 22.6 7.3 37% 76.45 0.0
02 19:35 Calm 8.05 Fair CLR 23.4 6.5 34% 76.45 0.0
02 19:15 S 9 8.05 Fair CLR 23.7 6 32% 76.45 0.0
02 18:55 Calm 8.05 Fair CLR 24 5.8 25.3 22.1 31% 25 76.45 0.0
02 18:35 Calm 6.44 Fair CLR 24.1 5.8 31% 25 76.45 0.0
02 18:15 Calm 8.05 Fair CLR 24.5 5.7 30% 25 76.48 0.0
02 17:55 SW 7 8.05 Partly Cloudy SCT100 25 6.5 31% 25 76.48 0.0
02 17:35 Calm 11.27 Partly Cloudy SCT100 24.8 5.9 30% 25 76.48 0.0
02 17:15 Calm 8.05 Partly Cloudy SCT085 SCT090 24.8 5.8 30% 25 76.48 0.0
02 16:55 Calm 8.05 Partly Cloudy SCT085 SCT090 24.9 5.6 29% 25 76.48 0.0
02 16:35 Calm 8.05 Fair CLR 24.1 5.6 30% 25 76.53 0.0
02 16:15 Calm 11.27 Fair CLR 24.1 5.9 31% 25 76.53 0.0
02 15:55 Calm 8.05 Fair CLR 23.2 5.4 32% 76.56 0.0
02 15:35 Calm 8.05 Fair CLR 24.1 6.3 32% 25 76.58 0.0
02 15:15 Calm 8.05 Fair CLR 24.1 6.8 33% 25 76.61 0.0
02 14:55 Calm 8.05 Partly Cloudy SCT070 23.6 6.5 33% 76.61 0.0
02 14:35 Calm 8.05 Partly Cloudy SCT070 23.6 6.2 33% 76.63 0.0
02 14:15 Calm 8.05 Partly Cloudy SCT070 23.2 5.9 33% 76.63 0.0
02 13:55 Calm 8.05 Fair CLR 23.5 6.5 34% 76.66 0.0
02 13:35 Calm 11.27 Partly Cloudy SCT060 23.3 7.1 35% 76.66 0.0
02 13:15 Calm 8.05 Partly Cloudy SCT060 22.1 6.6 37% 76.68 0.0
02 12:55 Calm 8.05 Fair CLR 22.3 6.7 22.5 8.5 37% 76.71 0.0
02 12:35 Calm 8.05 Fair CLR 21.7 6.6 38% 76.73 0.0
02 12:15 Calm 8.05 Fair CLR 22.1 6.6 37% 76.73 0.0
02 11:55 W 7 8.05 Fair CLR 21.3 6.8 39% 76.76 0.0
02 11:35 Calm 8.05 Fair CLR 21.3 6.3 38% 76.76 0.0
02 11:15 Calm 8.05 Fair CLR 20.8 7.9 44% 76.76 0.0
02 10:55 Calm 8.05 Fair CLR 20.1 8.7 48% 76.76 0.0
02 10:35 Calm 8.05 Fair CLR 19.6 9.6 53% 76.76 0.0
02 10:15 Calm 6.44 Fair CLR 18.5 9.7 57% 76.76 0.0
02 09:55 Calm 11.27 Fair CLR 17.2 10.7 66% 76.76 0.0
02 09:35 Calm 8.05 Fair CLR 16.2 10.3 68% 76.76 0.0
02 09:15 Calm 6.44 Fair CLR 14.9 10.9 77% 76.73 0.0
02 08:55 Calm 8.05 Fair CLR 13.4 11.1 86% 76.73 0.0
02 08:35 Calm 6.44 Fair CLR 12.2 10.9 92% 76.71 0.0
02 08:15 Calm 8.05 Fair CLR 11.1 10.8 98% 76.71 0.0
02 07:55 Calm 8.05 Fair CLR 10.3 10.3 100% 76.68 0.0
02 07:35 SW 6 8.05 Fair CLR 9.5 9.5 100% 76.66 0.0
02 07:15 Calm 8.05 Fair CLR 8.7 8.7 100% 76.63 0.0
02 06:55 Calm 6.44 Fair CLR 8.6 8.6 12 8.6 100% 76.61 0.0
02 06:35 Calm 11.27 Fair CLR 9 9 100% 76.61 0.0
02 06:15 Calm 11.27 Fair CLR 9 9 100% 76.61 0.0
02 05:55 Calm 8.05 Fair CLR 9 9 100% 76.58 0.0
02 05:35 Calm 8.05 Fair CLR 9 9 100% 76.56 0.0
02 05:15 Calm 8.05 Fair CLR 9.5 9.5 100% 76.56 0.0
02 04:55 Calm 8.05 Fair CLR 9.2 9.2 100% 76.53 0.0
02 04:35 Calm 8.05 Fair CLR 9.9 9.9 100% 76.53 0.0
02 04:15 Calm 8.05 Fair CLR 10.1 10.1 100% 76.53 0.0
02 03:55 Calm 8.05 Fair CLR 9.6 9.6 100% 76.53 0.0
02 03:35 Calm 11.27 Fair CLR 10.5 10.5 100% 76.53 0.0
02 03:15 Calm 8.05 Fair CLR 10.3 10.3 100% 76.53 0.0
02 02:55 Calm 8.05 Fair CLR 9.7 9.7 100% 76.53 0.0
02 02:35 Calm 11.27 Fair CLR 10.5 10.5 100% 76.53 0.0
02 02:15 Calm 11.27 Fair CLR 10.5 10.5 100% 76.56 0.0
02 01:55 Calm 11.27 Fair CLR 11.1 11.1 100% 76.56 0.0
02 01:35 Calm 11.27 Fair CLR 11.2 10.8 97% 76.53 0.0
02 01:15 Calm 8.05 Fair CLR 12 12 100% 76.53 0.0
02 00:55 Calm 11.27 Fair CLR 11.8 11.4 18.3 11.8 97% 76.53 0.0
02 00:35 Calm 8.05 Fair CLR 12.5 10.4 87% 76.53 0.0
02 00:15 Calm 11.27 Fair CLR 13.2 10.3 83% 76.5 0.0
01 23:55 Calm 8.05 Fair CLR 13.4 10.2 81% 76.5 0.0
01 23:35 Calm 11.27 Fair CLR 13.3 10.1 81% 76.5 0.0
01 23:15 Calm 11.27 Fair CLR 13.2 10.5 84% 76.5 0.0
01 22:55 Calm 11.27 Fair CLR 13.6 10.6 82% 76.5 0.0
01 22:35 Calm 8.05 Fair CLR 14.5 11 80% 76.48 0.0
01 22:15 Calm 11.27 Fair CLR 14.2 11 81% 76.48 0.0
01 21:55 Calm 11.27 Fair CLR 14.3 11.1 81% 76.48 0.0
01 21:35 Calm 11.27 Fair CLR 15.1 10.7 75% 76.43 0.0
01 21:15 Calm 11.27 Partly Cloudy SCT110 15.5 10.3 71% 76.4 0.0
01 20:55 Calm 11.27 Partly Cloudy SCT110 15.3 10.5 73% 76.4 0.0
01 20:35 Calm 11.27 Fair CLR 15.8 10.3 70% 76.35 0.0
01 20:15 Calm 8.05 Fair CLR 16.3 10 66% 76.35 0.0
01 19:55 Calm 8.05 Partly Cloudy SCT095 16.7 9.7 64% 76.35 0.0
01 19:35 Calm 8.05 Partly Cloudy SCT095 17.5 9.2 58% 76.33 0.0
01 19:15 Calm 8.05 Partly Cloudy SCT036 18 9.2 57% 76.3 0.0
01 18:55 Calm 8.05 Fair CLR 18.4 9.1 18.5 15.8 55% 76.28 0.0
01 18:35 NE 13 8.05 Fair CLR 17.3 9 58% 76.25 0.0
01 18:15 NE 15 8.05 Fair CLR 17.6 8.8 57% 76.2 0.0
01 17:55 NE 11 G 26 8.05 Fair CLR 17.4 8.7 57% 76.2 0.0
01 17:35 NE 15 6.44 Fair CLR 17.2 8.2 56% 76.2 0.0
01 17:15 NE 15 8.05 Fair CLR 17.2 8.1 55% 76.2 0.0
01 16:55 NE 11 11.27 Fair CLR 17.1 7.9 55% 76.23 0.0
01 16:35 E 9 8.05 Fair CLR 17.2 8.1 55% 76.25 0.0
01 16:15 E 11 8.05 Fair CLR 17.2 7.8 54% 76.28 0.0
01 15:55 E 9 8.05 Fair CLR 17.3 7.3 52% 76.28 0.0
01 15:35 E 9 8.05 Fair CLR 17.1 7.8 55% 76.28 0.0
01 15:15 E 13 11.27 Partly Cloudy SCT036 SCT100 17 8.5 58% 76.3 0.0
01 14:55 NE 13 16.09 Fair CLR 16.5 8.6 60% 76.33 0.0
01 14:35 NE 13 8.05 Mostly Cloudy SCT036 BKN080 16.4 8.9 61% 76.35 0.0
01 14:15 Calm 11.27 Overcast SCT036 OVC080 16 9.5 66% 76.35 0.0
01 13:55 Calm 11.27 Overcast SCT038 OVC070 15.8 9.4 66% 76.35 0.0
01 13:35 NE 11 8.05 Overcast SCT032 SCT038 OVC070 16 9.3 65% 76.35 0.0
01 13:15 E 7 6.44 Overcast SCT030 OVC070 16 9.1 64% 76.35 0.0
01 12:55 NE 13 8.05 Overcast SCT025 BKN040 OVC070 16.1 9.8 16.4 13.3 66% 76.3 0.0
01 12:35 E 17 8.05 Overcast BKN025 BKN030 OVC070 16.3 10.5 69% 76.3 0.0
01 12:15 E 15 8.05 Overcast SCT021 BKN030 OVC070 16.2 11 71% 76.3 0.0
01 11:55 Calm 8.05 Overcast BKN019 BKN029 OVC070 15.9 11.4 75% 76.33 0.0
01 11:35 Calm 8.05 Overcast BKN016 BKN022 OVC028 15.6 11.7 78% 76.33 0.0
01 11:15 E 11 8.05 Mostly Cloudy BKN014 BKN022 BKN036 15.5 12.1 80% 76.33 0.0
01 10:55 NE 13 11.27 Overcast BKN012 BKN034 OVC085 15.5 13 85% 76.3 0.0
01 10:35 NE 17 8.05 Overcast BKN011 BKN020 OVC065 14.5 13.1 91% 76.3 0.0
01 10:15 NE 15 6.44 Overcast BKN011 OVC018 14.5 13.4 93% 76.3 0.0
01 09:55 Calm 8.05 Overcast BKN011 BKN065 OVC110 14.5 13.5 94% 76.33 0.0
01 09:35 E 7 8.05 Mostly Cloudy SCT011 SCT080 BKN110 14.3 13.6 96% 76.3 0.0
Date Time (cdt) Wind (kph) Vis. (km) Weather Sky Cond. Air Dwpt Max. Min. Relative Humidity Wind Chill (°C) Heat Index (°C) altimeter (cm) sea level (mb) 1 hr 3 hr 6 hr
6 hour
Temperature (ºC) Pressure Precipitation (cm)